Eastchester, New York
Current Conditions -  °F | °C
As of 6:56 PM on Sunday 21 Dec 2014 (Local Time) from KHPN Reporting Station
Haze Haze  
Wind Chill: 25°   Ceiling: 2000
Heat Index: 32°   Visibility: 6mi
Dew Point: 29°   Wind: 8mph
Humidity: 88%   Direction: 320°NW
Pressure: 30.31"   Gusts: NA
Location:  40.96°N, 73.81°W
Report Text: KHPN 212356Z 32007KT 6SM BR FEW015 BKN020 BKN040 00/M02 A3031 RMK AO2 SNB15E53 SLP273 P0000 60000 T00001017 10011 21006 53014
Loading
Personal Weather Stations






























Interactive Weather Map New forecast layout! Learn more

10-Day Weather Forecast

Advertisements
Track Severe Weather on mobile